sensor_id;sensor_type;location;lat;lon;timestamp;P1;durP1;ratioP1;P2;durP2;ratioP2
5493;SDS011;2769;49.864;8.656;2022-07-29T00:00:05;4.20;;;2.33;;
5493;SDS011;2769;49.864;8.656;2022-07-29T00:02:55;3.93;;;2.20;;
5493;SDS011;2769;49.864;8.656;2022-07-29T00:05:42;5.63;;;2.40;;
5493;SDS011;2769;49.864;8.656;2022-07-29T00:08:29;6.90;;;2.63;;
5493;SDS011;2769;49.864;8.656;2022-07-29T00:11:15;3.67;;;2.30;;
5493;SDS011;2769;49.864;8.656;2022-07-29T00:14:02;7.90;;;2.67;;
5493;SDS011;2769;49.864;8.656;2022-07-29T00:16:49;7.00;;;2.50;;
5493;SDS011;2769;49.864;8.656;2022-07-29T00:19:38;4.77;;;2.40;;
5493;SDS011;2769;49.864;8.656;2022-07-29T00:22:29;5.03;;;2.27;;
5493;SDS011;2769;49.864;8.656;2022-07-29T00:25:16;8.97;;;2.97;;
5493;SDS011;2769;49.864;8.656;2022-07-29T00:28:02;3.77;;;2.17;;
5493;SDS011;2769;49.864;8.656;2022-07-29T00:30:49;2.53;;;2.33;;
5493;SDS011;2769;49.864;8.656;2022-07-29T00:33:35;3.57;;;2.13;;
5493;SDS011;2769;49.864;8.656;2022-07-29T00:36:23;5.80;;;2.20;;
5493;SDS011;2769;49.864;8.656;2022-07-29T00:39:09;6.43;;;2.60;;
5493;SDS011;2769;49.864;8.656;2022-07-29T00:41:55;3.30;;;2.30;;
5493;SDS011;2769;49.864;8.656;2022-07-29T00:44:42;3.30;;;2.40;;
5493;SDS011;2769;49.864;8.656;2022-07-29T00:47:28;7.00;;;2.23;;
5493;SDS011;2769;49.864;8.656;2022-07-29T00:50:15;3.90;;;2.17;;
5493;SDS011;2769;49.864;8.656;2022-07-29T00:53:03;6.10;;;2.77;;
5493;SDS011;2769;49.864;8.656;2022-07-29T00:55:53;4.77;;;2.50;;
5493;SDS011;2769;49.864;8.656;2022-07-29T00:58:40;8.60;;;3.13;;
5493;SDS011;2769;49.864;8.656;2022-07-29T01:01:27;7.70;;;2.37;;
5493;SDS011;2769;49.864;8.656;2022-07-29T01:04:14;2.23;;;1.90;;
5493;SDS011;2769;49.864;8.656;2022-07-29T01:07:01;7.23;;;2.30;;
5493;SDS011;2769;49.864;8.656;2022-07-29T01:09:50;8.50;;;2.17;;
5493;SDS011;2769;49.864;8.656;2022-07-29T01:12:38;10.60;;;2.50;;
5493;SDS011;2769;49.864;8.656;2022-07-29T01:15:26;6.17;;;2.10;;
5493;SDS011;2769;49.864;8.656;2022-07-29T01:18:15;4.13;;;2.07;;
5493;SDS011;2769;49.864;8.656;2022-07-29T01:21:13;3.77;;;2.00;;
5493;SDS011;2769;49.864;8.656;2022-07-29T01:24:30;6.90;;;2.10;;
5493;SDS011;2769;49.864;8.656;2022-07-29T01:27:32;4.03;;;2.00;;
5493;SDS011;2769;49.864;8.656;2022-07-29T01:30:27;6.00;;;2.10;;
5493;SDS011;2769;49.864;8.656;2022-07-29T01:33:18;3.37;;;2.30;;
5493;SDS011;2769;49.864;8.656;2022-07-29T01:36:28;7.30;;;2.10;;
5493;SDS011;2769;49.864;8.656;2022-07-29T01:39:19;2.70;;;1.70;;
5493;SDS011;2769;49.864;8.656;2022-07-29T01:42:14;5.13;;;1.70;;
5493;SDS011;2769;49.864;8.656;2022-07-29T01:45:14;3.23;;;2.60;;
5493;SDS011;2769;49.864;8.656;2022-07-29T01:48:06;3.37;;;2.00;;
5493;SDS011;2769;49.864;8.656;2022-07-29T01:50:58;2.20;;;2.00;;
5493;SDS011;2769;49.864;8.656;2022-07-29T01:53:52;4.00;;;2.27;;
5493;SDS011;2769;49.864;8.656;2022-07-29T01:56:45;5.60;;;2.20;;
5493;SDS011;2769;49.864;8.656;2022-07-29T01:59:35;2.57;;;2.37;;
5493;SDS011;2769;49.864;8.656;2022-07-29T02:02:24;9.03;;;2.30;;
5493;SDS011;2769;49.864;8.656;2022-07-29T02:05:14;4.27;;;2.40;;
5493;SDS011;2769;49.864;8.656;2022-07-29T02:08:03;8.57;;;2.43;;
5493;SDS011;2769;49.864;8.656;2022-07-29T02:10:51;6.07;;;2.30;;
5493;SDS011;2769;49.864;8.656;2022-07-29T02:13:40;3.53;;;2.23;;
5493;SDS011;2769;49.864;8.656;2022-07-29T02:16:29;2.50;;;2.30;;
5493;SDS011;2769;49.864;8.656;2022-07-29T02:19:18;14.77;;;2.73;;
5493;SDS011;2769;49.864;8.656;2022-07-29T02:22:09;8.03;;;2.17;;
5493;SDS011;2769;49.864;8.656;2022-07-29T02:24:58;7.73;;;2.30;;
5493;SDS011;2769;49.864;8.656;2022-07-29T02:27:47;2.60;;;2.40;;
5493;SDS011;2769;49.864;8.656;2022-07-29T02:30:36;3.90;;;2.23;;
5493;SDS011;2769;49.864;8.656;2022-07-29T02:33:26;10.13;;;2.50;;
5493;SDS011;2769;49.864;8.656;2022-07-29T02:36:14;5.43;;;2.50;;
5493;SDS011;2769;49.864;8.656;2022-07-29T02:39:03;3.50;;;2.43;;
5493;SDS011;2769;49.864;8.656;2022-07-29T02:41:55;3.83;;;2.60;;
5493;SDS011;2769;49.864;8.656;2022-07-29T02:44:47;5.27;;;2.40;;
5493;SDS011;2769;49.864;8.656;2022-07-29T02:47:34;6.80;;;2.63;;
5493;SDS011;2769;49.864;8.656;2022-07-29T02:50:27;14.77;;;2.90;;
5493;SDS011;2769;49.864;8.656;2022-07-29T02:53:18;3.67;;;2.53;;
5493;SDS011;2769;49.864;8.656;2022-07-29T02:56:10;4.30;;;2.40;;
5493;SDS011;2769;49.864;8.656;2022-07-29T02:59:00;5.03;;;2.27;;
5493;SDS011;2769;49.864;8.656;2022-07-29T03:01:49;9.93;;;2.40;;
5493;SDS011;2769;49.864;8.656;2022-07-29T03:04:38;5.50;;;2.70;;
5493;SDS011;2769;49.864;8.656;2022-07-29T03:07:27;4.33;;;2.67;;
5493;SDS011;2769;49.864;8.656;2022-07-29T03:10:15;9.27;;;3.10;;
5493;SDS011;2769;49.864;8.656;2022-07-29T03:13:03;3.30;;;2.90;;
5493;SDS011;2769;49.864;8.656;2022-07-29T03:15:52;10.17;;;3.10;;
5493;SDS011;2769;49.864;8.656;2022-07-29T03:18:39;8.90;;;3.43;;
5493;SDS011;2769;49.864;8.656;2022-07-29T03:21:26;9.30;;;2.67;;
5493;SDS011;2769;49.864;8.656;2022-07-29T03:24:23;3.27;;;2.67;;
5493;SDS011;2769;49.864;8.656;2022-07-29T03:27:11;4.50;;;2.40;;
5493;SDS011;2769;49.864;8.656;2022-07-29T03:29:59;6.93;;;2.70;;
5493;SDS011;2769;49.864;8.656;2022-07-29T03:32:46;5.97;;;2.70;;
5493;SDS011;2769;49.864;8.656;2022-07-29T03:35:32;5.90;;;3.00;;
5493;SDS011;2769;49.864;8.656;2022-07-29T03:38:19;11.27;;;2.50;;
5493;SDS011;2769;49.864;8.656;2022-07-29T03:41:11;7.50;;;2.20;;
5493;SDS011;2769;49.864;8.656;2022-07-29T03:44:06;4.27;;;2.50;;
5493;SDS011;2769;49.864;8.656;2022-07-29T03:46:55;5.97;;;2.47;;
5493;SDS011;2769;49.864;8.656;2022-07-29T03:49:46;12.37;;;2.87;;
5493;SDS011;2769;49.864;8.656;2022-07-29T03:52:36;9.70;;;2.70;;
5493;SDS011;2769;49.864;8.656;2022-07-29T03:55:23;4.03;;;2.70;;
5493;SDS011;2769;49.864;8.656;2022-07-29T03:58:10;4.77;;;2.67;;
5493;SDS011;2769;49.864;8.656;2022-07-29T04:00:59;8.40;;;3.07;;
5493;SDS011;2769;49.864;8.656;2022-07-29T04:03:47;6.67;;;2.57;;
5493;SDS011;2769;49.864;8.656;2022-07-29T04:06:38;5.40;;;2.60;;
5493;SDS011;2769;49.864;8.656;2022-07-29T04:09:26;3.33;;;2.40;;
5493;SDS011;2769;49.864;8.656;2022-07-29T04:12:12;2.97;;;2.33;;
5493;SDS011;2769;49.864;8.656;2022-07-29T04:14:59;4.37;;;2.50;;
5493;SDS011;2769;49.864;8.656;2022-07-29T04:17:46;5.93;;;2.43;;
5493;SDS011;2769;49.864;8.656;2022-07-29T04:20:34;4.50;;;3.30;;
5493;SDS011;2769;49.864;8.656;2022-07-29T04:23:21;5.17;;;2.20;;
5493;SDS011;2769;49.864;8.656;2022-07-29T04:26:07;4.33;;;2.67;;
5493;SDS011;2769;49.864;8.656;2022-07-29T04:28:54;3.93;;;2.87;;
5493;SDS011;2769;49.864;8.656;2022-07-29T04:31:41;5.53;;;2.70;;
5493;SDS011;2769;49.864;8.656;2022-07-29T04:34:28;4.13;;;2.93;;
5493;SDS011;2769;49.864;8.656;2022-07-29T04:37:16;3.03;;;2.83;;
5493;SDS011;2769;49.864;8.656;2022-07-29T04:40:03;5.07;;;2.40;;
5493;SDS011;2769;49.864;8.656;2022-07-29T04:42:50;3.93;;;2.50;;
5493;SDS011;2769;49.864;8.656;2022-07-29T04:45:38;9.63;;;2.93;;
5493;SDS011;2769;49.864;8.656;2022-07-29T04:48:24;3.87;;;3.03;;
5493;SDS011;2769;49.864;8.656;2022-07-29T04:51:12;11.73;;;3.40;;
5493;SDS011;2769;49.864;8.656;2022-07-29T04:54:00;6.90;;;2.63;;
5493;SDS011;2769;49.864;8.656;2022-07-29T04:56:47;2.87;;;2.57;;
5493;SDS011;2769;49.864;8.656;2022-07-29T04:59:34;2.77;;;2.57;;
5493;SDS011;2769;49.864;8.656;2022-07-29T05:02:20;7.97;;;3.97;;
5493;SDS011;2769;49.864;8.656;2022-07-29T05:05:07;4.10;;;2.67;;
5493;SDS011;2769;49.864;8.656;2022-07-29T05:07:54;4.27;;;2.63;;
5493;SDS011;2769;49.864;8.656;2022-07-29T05:10:42;4.67;;;2.70;;
5493;SDS011;2769;49.864;8.656;2022-07-29T05:13:29;11.10;;;2.67;;
5493;SDS011;2769;49.864;8.656;2022-07-29T05:16:30;2.83;;;2.57;;
5493;SDS011;2769;49.864;8.656;2022-07-29T05:19:18;6.57;;;2.97;;
5493;SDS011;2769;49.864;8.656;2022-07-29T05:22:05;3.50;;;2.73;;
5493;SDS011;2769;49.864;8.656;2022-07-29T05:24:51;10.20;;;3.10;;
5493;SDS011;2769;49.864;8.656;2022-07-29T05:27:39;4.37;;;3.17;;
5493;SDS011;2769;49.864;8.656;2022-07-29T05:30:26;4.17;;;3.17;;
5493;SDS011;2769;49.864;8.656;2022-07-29T05:33:12;7.53;;;3.20;;
5493;SDS011;2769;49.864;8.656;2022-07-29T05:36:19;9.10;;;2.77;;
5493;SDS011;2769;49.864;8.656;2022-07-29T05:39:05;6.57;;;3.00;;
5493;SDS011;2769;49.864;8.656;2022-07-29T05:41:52;4.20;;;3.23;;
5493;SDS011;2769;49.864;8.656;2022-07-29T05:44:40;7.90;;;3.20;;
5493;SDS011;2769;49.864;8.656;2022-07-29T05:47:27;6.80;;;3.00;;
5493;SDS011;2769;49.864;8.656;2022-07-29T05:50:13;6.70;;;2.80;;
5493;SDS011;2769;49.864;8.656;2022-07-29T05:53:00;9.03;;;3.37;;
5493;SDS011;2769;49.864;8.656;2022-07-29T05:56:04;5.13;;;3.10;;
5493;SDS011;2769;49.864;8.656;2022-07-29T05:58:52;2.90;;;2.60;;
5493;SDS011;2769;49.864;8.656;2022-07-29T06:01:40;9.87;;;3.47;;
5493;SDS011;2769;49.864;8.656;2022-07-29T06:04:26;7.47;;;3.50;;
5493;SDS011;2769;49.864;8.656;2022-07-29T06:07:13;6.57;;;4.00;;
5493;SDS011;2769;49.864;8.656;2022-07-29T06:10:01;5.77;;;3.10;;
5493;SDS011;2769;49.864;8.656;2022-07-29T06:12:47;10.00;;;3.33;;
5493;SDS011;2769;49.864;8.656;2022-07-29T06:15:33;4.30;;;3.00;;
5493;SDS011;2769;49.864;8.656;2022-07-29T06:18:22;11.60;;;3.33;;
5493;SDS011;2769;49.864;8.656;2022-07-29T06:21:09;10.83;;;3.33;;
5493;SDS011;2769;49.864;8.656;2022-07-29T06:23:56;8.30;;;2.83;;
5493;SDS011;2769;49.864;8.656;2022-07-29T06:26:44;7.77;;;3.50;;
5493;SDS011;2769;49.864;8.656;2022-07-29T06:29:31;7.27;;;3.37;;
5493;SDS011;2769;49.864;8.656;2022-07-29T06:32:20;7.87;;;3.33;;
5493;SDS011;2769;49.864;8.656;2022-07-29T06:35:12;7.23;;;3.13;;
5493;SDS011;2769;49.864;8.656;2022-07-29T06:38:19;4.43;;;3.17;;
5493;SDS011;2769;49.864;8.656;2022-07-29T06:41:15;8.13;;;2.90;;
5493;SDS011;2769;49.864;8.656;2022-07-29T06:44:03;3.90;;;3.50;;
5493;SDS011;2769;49.864;8.656;2022-07-29T06:46:50;8.33;;;3.20;;
5493;SDS011;2769;49.864;8.656;2022-07-29T06:49:37;8.53;;;3.13;;
5493;SDS011;2769;49.864;8.656;2022-07-29T06:52:25;4.33;;;2.80;;
5493;SDS011;2769;49.864;8.656;2022-07-29T06:55:12;5.97;;;3.00;;
5493;SDS011;2769;49.864;8.656;2022-07-29T06:58:09;9.00;;;3.63;;
5493;SDS011;2769;49.864;8.656;2022-07-29T07:00:57;3.40;;;2.90;;
5493;SDS011;2769;49.864;8.656;2022-07-29T07:03:46;10.00;;;3.60;;
5493;SDS011;2769;49.864;8.656;2022-07-29T07:06:33;8.43;;;3.20;;
5493;SDS011;2769;49.864;8.656;2022-07-29T07:09:21;4.93;;;2.90;;
5493;SDS011;2769;49.864;8.656;2022-07-29T07:12:08;4.87;;;2.83;;
5493;SDS011;2769;49.864;8.656;2022-07-29T07:14:55;3.70;;;2.70;;
5493;SDS011;2769;49.864;8.656;2022-07-29T07:17:41;6.93;;;3.50;;
5493;SDS011;2769;49.864;8.656;2022-07-29T07:20:28;9.13;;;3.10;;
5493;SDS011;2769;49.864;8.656;2022-07-29T07:23:14;4.53;;;3.17;;
5493;SDS011;2769;49.864;8.656;2022-07-29T07:26:02;6.43;;;3.03;;
5493;SDS011;2769;49.864;8.656;2022-07-29T07:28:50;8.93;;;3.40;;
5493;SDS011;2769;49.864;8.656;2022-07-29T07:31:37;7.17;;;3.10;;
5493;SDS011;2769;49.864;8.656;2022-07-29T07:34:25;4.03;;;3.30;;
5493;SDS011;2769;49.864;8.656;2022-07-29T07:37:13;3.90;;;3.03;;
5493;SDS011;2769;49.864;8.656;2022-07-29T07:40:00;8.87;;;2.90;;
5493;SDS011;2769;49.864;8.656;2022-07-29T07:42:48;6.83;;;3.53;;
5493;SDS011;2769;49.864;8.656;2022-07-29T07:45:35;3.50;;;2.90;;
5493;SDS011;2769;49.864;8.656;2022-07-29T07:48:22;7.30;;;3.17;;
5493;SDS011;2769;49.864;8.656;2022-07-29T07:51:09;4.10;;;2.80;;
5493;SDS011;2769;49.864;8.656;2022-07-29T07:53:56;4.83;;;2.80;;
5493;SDS011;2769;49.864;8.656;2022-07-29T07:56:43;3.10;;;2.80;;
5493;SDS011;2769;49.864;8.656;2022-07-29T07:59:33;5.13;;;2.80;;
5493;SDS011;2769;49.864;8.656;2022-07-29T08:02:20;9.40;;;2.93;;
5493;SDS011;2769;49.864;8.656;2022-07-29T08:05:07;4.70;;;3.40;;
5493;SDS011;2769;49.864;8.656;2022-07-29T08:07:57;3.87;;;2.87;;
5493;SDS011;2769;49.864;8.656;2022-07-29T08:10:43;6.33;;;2.97;;
5493;SDS011;2769;49.864;8.656;2022-07-29T08:13:40;4.90;;;3.20;;
5493;SDS011;2769;49.864;8.656;2022-07-29T08:16:28;4.60;;;2.80;;
5493;SDS011;2769;49.864;8.656;2022-07-29T08:19:15;5.77;;;3.03;;
5493;SDS011;2769;49.864;8.656;2022-07-29T08:22:01;6.00;;;2.70;;
5493;SDS011;2769;49.864;8.656;2022-07-29T08:24:48;4.17;;;2.80;;
5493;SDS011;2769;49.864;8.656;2022-07-29T08:27:39;2.97;;;2.73;;
5493;SDS011;2769;49.864;8.656;2022-07-29T08:30:28;3.20;;;2.93;;
5493;SDS011;2769;49.864;8.656;2022-07-29T08:33:16;4.17;;;3.00;;
5493;SDS011;2769;49.864;8.656;2022-07-29T08:36:03;3.47;;;3.13;;
5493;SDS011;2769;49.864;8.656;2022-07-29T08:38:50;3.67;;;2.77;;
5493;SDS011;2769;49.864;8.656;2022-07-29T08:41:37;3.60;;;2.50;;
5493;SDS011;2769;49.864;8.656;2022-07-29T08:44:23;5.77;;;2.77;;
5493;SDS011;2769;49.864;8.656;2022-07-29T08:47:14;3.30;;;2.57;;
5493;SDS011;2769;49.864;8.656;2022-07-29T08:50:02;5.23;;;3.27;;
5493;SDS011;2769;49.864;8.656;2022-07-29T08:52:49;3.73;;;2.90;;
5493;SDS011;2769;49.864;8.656;2022-07-29T08:55:44;12.27;;;2.83;;
5493;SDS011;2769;49.864;8.656;2022-07-29T08:58:34;15.33;;;3.20;;
5493;SDS011;2769;49.864;8.656;2022-07-29T09:01:23;7.53;;;3.43;;
5493;SDS011;2769;49.864;8.656;2022-07-29T09:04:20;5.53;;;2.63;;
5493;SDS011;2769;49.864;8.656;2022-07-29T09:07:12;4.33;;;2.90;;
5493;SDS011;2769;49.864;8.656;2022-07-29T09:10:03;5.67;;;3.00;;
5493;SDS011;2769;49.864;8.656;2022-07-29T09:12:51;4.40;;;3.20;;
5493;SDS011;2769;49.864;8.656;2022-07-29T09:15:40;2.90;;;2.70;;
5493;SDS011;2769;49.864;8.656;2022-07-29T09:18:34;7.57;;;2.60;;
5493;SDS011;2769;49.864;8.656;2022-07-29T09:21:21;3.10;;;2.20;;
5493;SDS011;2769;49.864;8.656;2022-07-29T09:24:28;9.40;;;3.00;;
5493;SDS011;2769;49.864;8.656;2022-07-29T09:27:24;2.70;;;2.50;;
5493;SDS011;2769;49.864;8.656;2022-07-29T09:30:13;6.43;;;2.80;;
5493;SDS011;2769;49.864;8.656;2022-07-29T09:33:15;3.93;;;2.67;;
5493;SDS011;2769;49.864;8.656;2022-07-29T09:36:03;4.57;;;2.83;;
5493;SDS011;2769;49.864;8.656;2022-07-29T09:38:56;2.70;;;2.50;;
5493;SDS011;2769;49.864;8.656;2022-07-29T09:41:46;3.17;;;2.87;;
5493;SDS011;2769;49.864;8.656;2022-07-29T09:44:40;3.00;;;2.90;;
5493;SDS011;2769;49.864;8.656;2022-07-29T09:47:41;4.40;;;2.87;;
5493;SDS011;2769;49.864;8.656;2022-07-29T09:50:35;2.93;;;2.60;;
5493;SDS011;2769;49.864;8.656;2022-07-29T09:53:29;3.50;;;3.20;;
5493;SDS011;2769;49.864;8.656;2022-07-29T09:56:17;2.73;;;2.50;;
5493;SDS011;2769;49.864;8.656;2022-07-29T09:59:06;2.83;;;2.57;;
5493;SDS011;2769;49.864;8.656;2022-07-29T10:01:53;2.80;;;2.60;;
5493;SDS011;2769;49.864;8.656;2022-07-29T10:04:40;2.70;;;2.60;;
5493;SDS011;2769;49.864;8.656;2022-07-29T10:07:42;4.77;;;2.70;;
5493;SDS011;2769;49.864;8.656;2022-07-29T10:10:38;2.90;;;2.70;;
5493;SDS011;2769;49.864;8.656;2022-07-29T10:13:27;3.50;;;3.20;;
5493;SDS011;2769;49.864;8.656;2022-07-29T10:16:15;4.80;;;2.77;;
5493;SDS011;2769;49.864;8.656;2022-07-29T10:19:02;2.63;;;2.50;;
5493;SDS011;2769;49.864;8.656;2022-07-29T10:21:49;2.87;;;2.70;;
5493;SDS011;2769;49.864;8.656;2022-07-29T10:24:41;3.03;;;2.80;;
5493;SDS011;2769;49.864;8.656;2022-07-29T10:27:29;3.47;;;2.40;;
5493;SDS011;2769;49.864;8.656;2022-07-29T10:30:17;6.80;;;2.60;;
5493;SDS011;2769;49.864;8.656;2022-07-29T10:33:16;5.43;;;2.80;;
5493;SDS011;2769;49.864;8.656;2022-07-29T10:36:15;3.63;;;2.93;;
5493;SDS011;2769;49.864;8.656;2022-07-29T10:39:17;4.07;;;2.93;;
5493;SDS011;2769;49.864;8.656;2022-07-29T10:42:28;3.90;;;3.13;;
5493;SDS011;2769;49.864;8.656;2022-07-29T10:45:18;4.95;;;2.55;;
5493;SDS011;2769;49.864;8.656;2022-07-29T10:48:06;4.70;;;2.80;;
5493;SDS011;2769;49.864;8.656;2022-07-29T10:50:57;3.20;;;2.33;;
5493;SDS011;2769;49.864;8.656;2022-07-29T10:53:48;4.82;;;2.75;;
5493;SDS011;2769;49.864;8.656;2022-07-29T10:56:37;3.08;;;2.60;;
5493;SDS011;2769;49.864;8.656;2022-07-29T10:59:28;3.97;;;2.63;;
5493;SDS011;2769;49.864;8.656;2022-07-29T11:05:30;3.10;;;2.80;;
5493;SDS011;2769;49.864;8.656;2022-07-29T11:08:39;3.30;;;2.95;;
5493;SDS011;2769;49.864;8.656;2022-07-29T11:11:32;3.47;;;2.85;;
5493;SDS011;2769;49.864;8.656;2022-07-29T11:20:50;3.10;;;2.50;;
5493;SDS011;2769;49.864;8.656;2022-07-29T11:23:42;7.00;;;2.40;;
5493;SDS011;2769;49.864;8.656;2022-07-29T11:26:29;4.05;;;2.60;;
5493;SDS011;2769;49.864;8.656;2022-07-29T11:29:18;5.68;;;2.63;;
5493;SDS011;2769;49.864;8.656;2022-07-29T11:32:11;2.97;;;2.78;;
5493;SDS011;2769;49.864;8.656;2022-07-29T11:35:20;3.85;;;2.53;;
5493;SDS011;2769;49.864;8.656;2022-07-29T11:38:24;2.83;;;2.73;;
5493;SDS011;2769;49.864;8.656;2022-07-29T11:41:23;4.30;;;2.63;;
5493;SDS011;2769;49.864;8.656;2022-07-29T11:44:11;5.13;;;2.87;;
5493;SDS011;2769;49.864;8.656;2022-07-29T11:47:01;3.10;;;2.73;;
5493;SDS011;2769;49.864;8.656;2022-07-29T11:49:51;5.30;;;3.00;;
5493;SDS011;2769;49.864;8.656;2022-07-29T11:52:44;8.33;;;3.20;;
5493;SDS011;2769;49.864;8.656;2022-07-29T11:55:33;3.43;;;3.00;;
5493;SDS011;2769;49.864;8.656;2022-07-29T11:58:36;12.17;;;3.30;;
5493;SDS011;2769;49.864;8.656;2022-07-29T12:01:24;3.10;;;2.90;;
5493;SDS011;2769;49.864;8.656;2022-07-29T12:04:11;2.95;;;2.75;;
5493;SDS011;2769;49.864;8.656;2022-07-29T12:06:58;3.30;;;2.70;;
5493;SDS011;2769;49.864;8.656;2022-07-29T12:09:49;3.20;;;2.70;;
5493;SDS011;2769;49.864;8.656;2022-07-29T12:12:41;3.50;;;2.70;;
5493;SDS011;2769;49.864;8.656;2022-07-29T12:15:29;8.05;;;2.35;;
5493;SDS011;2769;49.864;8.656;2022-07-29T12:18:31;2.70;;;2.58;;
5493;SDS011;2769;49.864;8.656;2022-07-29T12:21:17;2.60;;;2.22;;
5493;SDS011;2769;49.864;8.656;2022-07-29T12:24:09;3.28;;;2.20;;
5493;SDS011;2769;49.864;8.656;2022-07-29T12:26:57;6.53;;;2.83;;
5493;SDS011;2769;49.864;8.656;2022-07-29T12:29:44;2.70;;;2.35;;
5493;SDS011;2769;49.864;8.656;2022-07-29T12:32:34;6.18;;;2.40;;
5493;SDS011;2769;49.864;8.656;2022-07-29T12:35:23;2.72;;;2.17;;
5493;SDS011;2769;49.864;8.656;2022-07-29T12:38:10;4.32;;;2.60;;
5493;SDS011;2769;49.864;8.656;2022-07-29T12:40:58;2.90;;;2.70;;
5493;SDS011;2769;49.864;8.656;2022-07-29T12:43:51;4.10;;;2.63;;
5493;SDS011;2769;49.864;8.656;2022-07-29T12:46:38;2.87;;;2.63;;
5493;SDS011;2769;49.864;8.656;2022-07-29T12:49:27;3.27;;;2.97;;
5493;SDS011;2769;49.864;8.656;2022-07-29T12:52:26;4.53;;;2.87;;
5493;SDS011;2769;49.864;8.656;2022-07-29T12:55:13;2.47;;;2.20;;
5493;SDS011;2769;49.864;8.656;2022-07-29T12:58:00;2.58;;;2.47;;
5493;SDS011;2769;49.864;8.656;2022-07-29T13:00:57;4.28;;;2.35;;
5493;SDS011;2769;49.864;8.656;2022-07-29T13:04:00;7.47;;;2.50;;
5493;SDS011;2769;49.864;8.656;2022-07-29T13:06:57;3.65;;;2.00;;
5493;SDS011;2769;49.864;8.656;2022-07-29T13:09:44;2.30;;;2.20;;
5493;SDS011;2769;49.864;8.656;2022-07-29T13:12:31;3.00;;;2.25;;
5493;SDS011;2769;49.864;8.656;2022-07-29T13:15:17;3.50;;;2.80;;
5493;SDS011;2769;49.864;8.656;2022-07-29T13:18:04;3.22;;;2.00;;
5493;SDS011;2769;49.864;8.656;2022-07-29T13:20:51;3.08;;;2.00;;
5493;SDS011;2769;49.864;8.656;2022-07-29T13:23:39;3.47;;;1.88;;
5493;SDS011;2769;49.864;8.656;2022-07-29T13:26:26;2.42;;;2.33;;
5493;SDS011;2769;49.864;8.656;2022-07-29T13:29:12;2.40;;;2.20;;
5493;SDS011;2769;49.864;8.656;2022-07-29T13:31:58;4.03;;;2.17;;
5493;SDS011;2769;49.864;8.656;2022-07-29T13:34:45;5.88;;;2.22;;
5493;SDS011;2769;49.864;8.656;2022-07-29T13:37:32;3.88;;;2.25;;
5493;SDS011;2769;49.864;8.656;2022-07-29T13:40:21;4.03;;;2.30;;
5493;SDS011;2769;49.864;8.656;2022-07-29T13:43:08;2.47;;;2.35;;
5493;SDS011;2769;49.864;8.656;2022-07-29T13:45:55;3.70;;;2.25;;
5493;SDS011;2769;49.864;8.656;2022-07-29T13:48:42;3.08;;;2.40;;
5493;SDS011;2769;49.864;8.656;2022-07-29T13:51:28;2.38;;;2.15;;
5493;SDS011;2769;49.864;8.656;2022-07-29T13:54:15;2.63;;;2.40;;
5493;SDS011;2769;49.864;8.656;2022-07-29T13:57:03;2.77;;;2.67;;
5493;SDS011;2769;49.864;8.656;2022-07-29T13:59:50;3.40;;;2.60;;
5493;SDS011;2769;49.864;8.656;2022-07-29T14:02:38;4.90;;;2.60;;
5493;SDS011;2769;49.864;8.656;2022-07-29T14:05:25;3.97;;;2.83;;
5493;SDS011;2769;49.864;8.656;2022-07-29T14:08:11;3.00;;;2.80;;
5493;SDS011;2769;49.864;8.656;2022-07-29T14:10:58;4.10;;;2.97;;
5493;SDS011;2769;49.864;8.656;2022-07-29T14:13:46;3.10;;;2.83;;
5493;SDS011;2769;49.864;8.656;2022-07-29T14:16:32;5.10;;;3.17;;
5493;SDS011;2769;49.864;8.656;2022-07-29T14:19:26;3.10;;;2.90;;
5493;SDS011;2769;49.864;8.656;2022-07-29T14:22:12;3.10;;;2.80;;
5493;SDS011;2769;49.864;8.656;2022-07-29T14:25:00;8.63;;;2.90;;
5493;SDS011;2769;49.864;8.656;2022-07-29T14:27:58;3.30;;;3.10;;
5493;SDS011;2769;49.864;8.656;2022-07-29T14:30:46;5.50;;;3.10;;
5493;SDS011;2769;49.864;8.656;2022-07-29T14:33:33;3.93;;;3.30;;
5493;SDS011;2769;49.864;8.656;2022-07-29T14:36:19;4.30;;;3.03;;
5493;SDS011;2769;49.864;8.656;2022-07-29T14:39:06;3.93;;;3.60;;
5493;SDS011;2769;49.864;8.656;2022-07-29T14:41:53;5.33;;;2.90;;
5493;SDS011;2769;49.864;8.656;2022-07-29T14:44:40;5.70;;;3.33;;
5493;SDS011;2769;49.864;8.656;2022-07-29T14:47:30;6.23;;;2.93;;
5493;SDS011;2769;49.864;8.656;2022-07-29T14:50:16;9.10;;;3.53;;
5493;SDS011;2769;49.864;8.656;2022-07-29T14:53:13;4.83;;;3.20;;
5493;SDS011;2769;49.864;8.656;2022-07-29T14:56:00;3.47;;;3.27;;
5493;SDS011;2769;49.864;8.656;2022-07-29T14:59:06;3.77;;;3.13;;
5493;SDS011;2769;49.864;8.656;2022-07-29T15:01:53;5.70;;;3.30;;
5493;SDS011;2769;49.864;8.656;2022-07-29T15:04:42;4.23;;;3.50;;
5493;SDS011;2769;49.864;8.656;2022-07-29T15:07:29;4.27;;;3.17;;
5493;SDS011;2769;49.864;8.656;2022-07-29T15:10:15;6.20;;;3.77;;
5493;SDS011;2769;49.864;8.656;2022-07-29T15:13:02;6.47;;;2.87;;
5493;SDS011;2769;49.864;8.656;2022-07-29T15:15:49;4.63;;;3.30;;
5493;SDS011;2769;49.864;8.656;2022-07-29T15:18:41;3.90;;;3.47;;
5493;SDS011;2769;49.864;8.656;2022-07-29T15:21:28;3.20;;;2.90;;
5493;SDS011;2769;49.864;8.656;2022-07-29T15:24:15;6.93;;;2.90;;
5493;SDS011;2769;49.864;8.656;2022-07-29T15:27:02;11.00;;;3.27;;
5493;SDS011;2769;49.864;8.656;2022-07-29T15:29:49;4.27;;;2.90;;
5493;SDS011;2769;49.864;8.656;2022-07-29T15:32:35;7.90;;;3.03;;
5493;SDS011;2769;49.864;8.656;2022-07-29T15:35:22;9.57;;;3.30;;
5493;SDS011;2769;49.864;8.656;2022-07-29T15:38:10;5.37;;;3.30;;
5493;SDS011;2769;49.864;8.656;2022-07-29T15:40:57;3.43;;;3.13;;
5493;SDS011;2769;49.864;8.656;2022-07-29T15:43:43;6.83;;;3.60;;
5493;SDS011;2769;49.864;8.656;2022-07-29T15:46:32;4.47;;;3.17;;
5493;SDS011;2769;49.864;8.656;2022-07-29T15:49:37;4.70;;;3.03;;
5493;SDS011;2769;49.864;8.656;2022-07-29T15:52:33;4.83;;;2.80;;
5493;SDS011;2769;49.864;8.656;2022-07-29T15:55:21;5.00;;;3.00;;
5493;SDS011;2769;49.864;8.656;2022-07-29T15:58:08;4.53;;;3.13;;
5493;SDS011;2769;49.864;8.656;2022-07-29T16:00:55;4.10;;;2.90;;
5493;SDS011;2769;49.864;8.656;2022-07-29T16:03:42;3.63;;;3.10;;
5493;SDS011;2769;49.864;8.656;2022-07-29T16:06:30;6.17;;;3.87;;
5493;SDS011;2769;49.864;8.656;2022-07-29T16:09:17;3.43;;;2.90;;
5493;SDS011;2769;49.864;8.656;2022-07-29T16:12:05;3.33;;;3.00;;
5493;SDS011;2769;49.864;8.656;2022-07-29T16:14:59;7.83;;;2.67;;
5493;SDS011;2769;49.864;8.656;2022-07-29T16:17:53;3.53;;;3.23;;
5493;SDS011;2769;49.864;8.656;2022-07-29T16:20:39;3.47;;;3.20;;
5493;SDS011;2769;49.864;8.656;2022-07-29T16:23:27;3.93;;;3.50;;
5493;SDS011;2769;49.864;8.656;2022-07-29T16:26:13;6.23;;;3.70;;
5493;SDS011;2769;49.864;8.656;2022-07-29T16:29:04;4.10;;;3.73;;
5493;SDS011;2769;49.864;8.656;2022-07-29T16:31:51;4.13;;;3.70;;
5493;SDS011;2769;49.864;8.656;2022-07-29T16:34:38;5.90;;;3.80;;
5493;SDS011;2769;49.864;8.656;2022-07-29T16:37:25;3.80;;;3.50;;
5493;SDS011;2769;49.864;8.656;2022-07-29T16:40:17;5.50;;;3.70;;
5493;SDS011;2769;49.864;8.656;2022-07-29T16:43:03;4.10;;;3.80;;
5493;SDS011;2769;49.864;8.656;2022-07-29T16:45:52;7.60;;;3.60;;
5493;SDS011;2769;49.864;8.656;2022-07-29T16:48:39;6.03;;;3.73;;
5493;SDS011;2769;49.864;8.656;2022-07-29T16:51:26;4.27;;;3.63;;
5493;SDS011;2769;49.864;8.656;2022-07-29T16:54:13;5.33;;;3.53;;
5493;SDS011;2769;49.864;8.656;2022-07-29T16:57:00;3.70;;;3.40;;
5493;SDS011;2769;49.864;8.656;2022-07-29T16:59:46;5.00;;;3.87;;
5493;SDS011;2769;49.864;8.656;2022-07-29T17:02:36;4.27;;;3.87;;
5493;SDS011;2769;49.864;8.656;2022-07-29T17:05:23;3.73;;;3.50;;
5493;SDS011;2769;49.864;8.656;2022-07-29T17:08:09;3.30;;;3.10;;
5493;SDS011;2769;49.864;8.656;2022-07-29T17:10:56;3.80;;;3.50;;
5493;SDS011;2769;49.864;8.656;2022-07-29T17:13:42;5.20;;;3.30;;
5493;SDS011;2769;49.864;8.656;2022-07-29T17:16:29;4.67;;;3.57;;
5493;SDS011;2769;49.864;8.656;2022-07-29T17:19:17;3.70;;;3.33;;
5493;SDS011;2769;49.864;8.656;2022-07-29T17:22:05;4.93;;;3.50;;
5493;SDS011;2769;49.864;8.656;2022-07-29T17:25:03;3.63;;;3.33;;
5493;SDS011;2769;49.864;8.656;2022-07-29T17:27:50;3.20;;;2.80;;
5493;SDS011;2769;49.864;8.656;2022-07-29T17:30:44;3.03;;;2.83;;
5493;SDS011;2769;49.864;8.656;2022-07-29T17:33:30;2.83;;;2.63;;
5493;SDS011;2769;49.864;8.656;2022-07-29T17:36:18;3.23;;;2.97;;
5493;SDS011;2769;49.864;8.656;2022-07-29T17:39:12;3.93;;;3.30;;
5493;SDS011;2769;49.864;8.656;2022-07-29T17:41:58;3.57;;;3.27;;